createdAt,value
2017-09-29T00:00:29.447Z,23.54
2017-09-29T00:01:38.792Z,23.56
2017-09-29T00:02:48.127Z,23.59
2017-09-29T00:03:56.819Z,23.54
2017-09-29T00:05:05.840Z,23.59
2017-09-29T00:06:14.538Z,23.55
2017-09-29T00:07:23.876Z,23.51
2017-09-29T00:08:33.210Z,23.59
2017-09-29T00:09:42.874Z,23.55
2017-09-29T00:10:51.889Z,23.44
2017-09-29T00:12:01.229Z,23.55
2017-09-29T00:13:11.529Z,23.48
2017-09-29T00:14:20.866Z,23.44
2017-09-29T00:15:30.207Z,23.5
2017-09-29T00:16:38.905Z,23.55
2017-09-29T00:17:49.224Z,23.46
2017-09-29T00:18:57.916Z,23.51
2017-09-29T00:20:06.931Z,23.48
2017-09-29T00:21:15.952Z,23.46
2017-09-29T00:22:24.969Z,23.47
2017-09-29T00:23:34.947Z,23.54
2017-09-29T00:24:43.985Z,23.55
2017-09-29T00:25:53.327Z,23.47
2017-09-29T00:27:02.359Z,23.56
2017-09-29T00:28:11.055Z,23.54
2017-09-29T00:29:20.388Z,23.41
2017-09-29T00:30:29.726Z,23.48
2017-09-29T00:31:38.737Z,23.51
2017-09-29T00:32:48.072Z,23.58
2017-09-29T00:33:57.407Z,23.47
2017-09-29T00:35:06.426Z,23.5
2017-09-29T00:36:15.443Z,23.48
2017-09-29T00:37:24.460Z,23.41
2017-09-29T00:38:33.477Z,23.48
2017-09-29T00:39:43.137Z,23.48
2017-09-29T00:40:52.804Z,23.48
2017-09-29T00:42:01.822Z,23.47
2017-09-29T00:43:11.482Z,23.48
2017-09-29T00:44:20.493Z,23.4
2017-09-29T00:45:29.192Z,23.54
2017-09-29T00:46:38.532Z,23.48
2017-09-29T00:47:47.543Z,23.41
2017-09-29T00:48:56.243Z,23.46
2017-09-29T00:50:05.260Z,23.44
2017-09-29T00:51:13.956Z,23.41
2017-09-29T00:52:22.967Z,23.5
2017-09-29T00:53:31.984Z,23.43
2017-09-29T00:54:41.324Z,23.5
2017-09-29T00:55:50.342Z,23.41
2017-09-29T00:56:59.040Z,23.46
2017-09-29T00:58:08.376Z,23.44
2017-09-29T00:59:18.038Z,23.39
2017-09-29T01:00:27.410Z,23.43
2017-09-29T01:01:36.422Z,23.4
2017-09-29T01:02:45.120Z,23.48
2017-09-29T01:03:54.770Z,23.5
2017-09-29T01:05:03.795Z,23.51
2017-09-29T01:06:13.134Z,23.48
2017-09-29T01:07:22.797Z,23.48
2017-09-29T01:08:32.459Z,23.47
2017-09-29T01:09:41.478Z,23.43
2017-09-29T01:10:51.138Z,23.47
2017-09-29T01:12:00.480Z,23.41
2017-09-29T01:13:09.495Z,23.51
2017-09-29T01:14:18.192Z,23.41
2017-09-29T01:15:27.540Z,23.4
2017-09-29T01:16:36.879Z,23.46
2017-09-29T01:17:45.893Z,23.39
2017-09-29T01:18:55.227Z,23.41
2017-09-29T01:20:04.890Z,23.43
2017-09-29T01:21:13.903Z,23.39
2017-09-29T01:22:22.917Z,23.41
2017-09-29T01:23:31.935Z,23.37
2017-09-29T01:24:40.948Z,23.46
2017-09-29T01:25:50.604Z,23.4
2017-09-29T01:26:59.947Z,23.44
2017-09-29T01:28:08.959Z,23.39
2017-09-29T01:29:17.652Z,23.41
2017-09-29T01:30:27.301Z,23.4
2017-09-29T01:31:37.286Z,23.44
2017-09-29T01:32:46.945Z,23.41
2017-09-29T01:33:56.280Z,23.48
2017-09-29T01:35:05.618Z,23.4
2017-09-29T01:36:14.315Z,23.41
2017-09-29T01:37:23.964Z,23.41
2017-09-29T01:38:32.659Z,23.31
2017-09-29T01:39:41.675Z,23.34
2017-09-29T01:40:51.015Z,23.39
2017-09-29T01:42:00.670Z,23.41
2017-09-29T01:43:10.331Z,23.31
2017-09-29T01:44:19.667Z,23.36
2017-09-29T01:45:28.680Z,23.23
2017-09-29T01:46:37.693Z,23.39
2017-09-29T01:47:46.705Z,23.34
2017-09-29T01:48:55.723Z,23.25
2017-09-29T01:50:05.062Z,23.4
2017-09-29T01:51:14.394Z,23.31
2017-09-29T01:52:23.408Z,23.4
2017-09-29T01:53:32.740Z,23.28
2017-09-29T01:54:42.088Z,23.37
2017-09-29T01:55:51.105Z,23.28
2017-09-29T01:57:00.447Z,23.36
2017-09-29T01:58:09.781Z,23.34
2017-09-29T01:59:18.477Z,23.34
2017-09-29T02:00:27.815Z,23.2
2017-09-29T02:01:36.510Z,23.37
2017-09-29T02:02:45.526Z,23.34
2017-09-29T02:03:54.862Z,23.32
2017-09-29T02:05:04.201Z,23.31
2017-09-29T02:06:14.176Z,23.32
2017-09-29T02:07:23.198Z,23.27
2017-09-29T02:08:31.892Z,23.28
2017-09-29T02:09:40.911Z,23.34
2017-09-29T02:10:49.939Z,23.39
2017-09-29T02:11:58.958Z,23.27
2017-09-29T02:13:07.648Z,23.32
2017-09-29T02:14:16.660Z,23.32
2017-09-29T02:15:25.991Z,23.36
2017-09-29T02:16:35.320Z,23.36
2017-09-29T02:17:44.656Z,23.25
2017-09-29T02:18:53.989Z,23.31
2017-09-29T02:20:03.005Z,23.32
2017-09-29T02:21:12.339Z,23.2
2017-09-29T02:22:21.348Z,23.23
2017-09-29T02:23:30.045Z,23.21
2017-09-29T02:24:39.061Z,23.23
2017-09-29T02:25:48.076Z,23.24
2017-09-29T02:26:56.774Z,23.24
2017-09-29T02:28:06.105Z,23.21
2017-09-29T02:29:15.125Z,23.24
2017-09-29T02:30:23.821Z,23.15
2017-09-29T02:31:33.479Z,23.21
2017-09-29T02:32:42.179Z,23.18
2017-09-29T02:33:51.513Z,23.09
2017-09-29T02:35:00.540Z,23.21
2017-09-29T02:36:09.869Z,23.18
2017-09-29T02:37:19.215Z,23.23
2017-09-29T02:38:27.910Z,23.15
2017-09-29T02:39:36.609Z,23.18
2017-09-29T02:40:45.954Z,23.23
2017-09-29T02:41:55.929Z,23.18
2017-09-29T02:43:04.946Z,23.17
2017-09-29T02:44:13.959Z,23.1
2017-09-29T02:45:22.974Z,23.09
2017-09-29T02:46:32.309Z,23.17
2017-09-29T02:47:41.646Z,23.17
2017-09-29T02:48:50.980Z,23.15
2017-09-29T02:49:59.995Z,23.13
2017-09-29T02:51:08.686Z,23.15
2017-09-29T02:52:18.662Z,23.13
2017-09-29T02:53:27.679Z,23.18
2017-09-29T02:54:36.695Z,23.17
2017-09-29T02:55:45.388Z,23.17
2017-09-29T02:56:54.082Z,23.13
2017-09-29T02:58:03.417Z,23.13
2017-09-29T02:59:12.749Z,23.08
2017-09-29T03:00:22.086Z,23.08
2017-09-29T03:01:31.100Z,23.05
2017-09-29T03:02:40.752Z,23.08
2017-09-29T03:03:50.084Z,23.1
2017-09-29T03:04:59.098Z,23.02
2017-09-29T03:06:08.119Z,23.08
2017-09-29T03:07:16.817Z,23.03
2017-09-29T03:08:26.153Z,23.08
2017-09-29T03:09:35.170Z,23
2017-09-29T03:10:44.829Z,23.03
2017-09-29T03:11:54.489Z,23.06
2017-09-29T03:13:03.825Z,23.02
2017-09-29T03:14:12.835Z,23.1
2017-09-29T03:15:21.848Z,22.94
2017-09-29T03:16:30.542Z,23
2017-09-29T03:17:39.883Z,22.98
2017-09-29T03:18:48.896Z,22.98
2017-09-29T03:19:58.230Z,23
2017-09-29T03:21:07.252Z,23.02
2017-09-29T03:22:16.904Z,23.03
2017-09-29T03:23:26.556Z,23.02
2017-09-29T03:24:35.573Z,22.94
2017-09-29T03:25:44.909Z,23.1
2017-09-29T03:26:54.246Z,23.1
2017-09-29T03:28:03.261Z,23.03
2017-09-29T03:29:12.283Z,23.09
2017-09-29T03:30:21.302Z,23.02
2017-09-29T03:31:30.640Z,23.03
2017-09-29T03:32:39.979Z,23.02
2017-09-29T03:33:49.318Z,23.02
2017-09-29T03:34:58.012Z,23.06
2017-09-29T03:36:07.031Z,23
2017-09-29T03:37:15.724Z,23.03
2017-09-29T03:38:25.698Z,23.02
2017-09-29T03:39:34.717Z,23.06
2017-09-29T03:40:43.732Z,23.09
2017-09-29T03:41:53.066Z,23.08
2017-09-29T03:43:02.402Z,22.99
2017-09-29T03:44:11.421Z,23.09
2017-09-29T03:45:21.390Z,23.03
2017-09-29T03:46:30.088Z,23.12
2017-09-29T03:47:39.741Z,23.05
2017-09-29T03:48:49.398Z,23.12
2017-09-29T03:49:58.099Z,23.12
2017-09-29T03:51:07.432Z,23.13
2017-09-29T03:52:16.132Z,23.1
2017-09-29T03:53:25.470Z,23.13
2017-09-29T03:54:34.487Z,23.2
2017-09-29T03:55:43.829Z,23.15
2017-09-29T03:56:52.525Z,23.1
2017-09-29T03:58:01.860Z,23.13
2017-09-29T03:59:10.882Z,23.17
2017-09-29T04:00:20.217Z,23.2
2017-09-29T04:01:29.234Z,23.17
2017-09-29T04:02:37.931Z,23.2
2017-09-29T04:03:46.947Z,23.2
2017-09-29T04:04:55.960Z,23.21
2017-09-29T04:06:05.297Z,23.21
2017-09-29T04:07:14.634Z,23.18
2017-09-29T04:08:23.649Z,23.23
2017-09-29T04:09:33.306Z,23.2
2017-09-29T04:10:42.957Z,23.21
2017-09-29T04:11:51.648Z,23.2
2017-09-29T04:13:00.669Z,23.24
2017-09-29T04:14:10.010Z,23.23
2017-09-29T04:15:19.019Z,23.25
2017-09-29T04:16:28.361Z,23.17
2017-09-29T04:17:37.378Z,23.28
2017-09-29T04:18:46.391Z,23.24
2017-09-29T04:19:56.051Z,23.28
2017-09-29T04:21:05.065Z,23.31
2017-09-29T04:22:13.765Z,23.24
2017-09-29T04:23:22.778Z,23.34
2017-09-29T04:24:31.474Z,23.28
2017-09-29T04:25:40.491Z,23.34
2017-09-29T04:26:49.825Z,23.27
2017-09-29T04:27:59.162Z,23.32
2017-09-29T04:29:07.859Z,23.32
2017-09-29T04:30:17.193Z,23.28
2017-09-29T04:31:26.210Z,23.27
2017-09-29T04:32:35.541Z,23.34
2017-09-29T04:33:44.875Z,23.27
2017-09-29T04:34:54.538Z,23.28
2017-09-29T04:36:03.874Z,23.32
2017-09-29T04:37:12.570Z,23.34
2017-09-29T04:38:21.584Z,23.34
2017-09-29T04:39:30.917Z,23.25
2017-09-29T04:40:39.930Z,23.4
2017-09-29T04:41:48.630Z,23.28
2017-09-29T04:42:57.648Z,23.28
2017-09-29T04:44:06.980Z,23.28
2017-09-29T04:45:15.993Z,23.4
2017-09-29T04:46:25.005Z,23.27
2017-09-29T04:47:33.706Z,23.37
2017-09-29T04:48:43.039Z,23.31
2017-09-29T04:49:52.371Z,23.39
2017-09-29T04:51:01.702Z,23.31
2017-09-29T04:52:11.042Z,23.34
2017-09-29T04:53:20.729Z,23.4
2017-09-29T04:54:29.743Z,23.4
2017-09-29T04:55:38.756Z,23.39
2017-09-29T04:56:47.452Z,23.32
2017-09-29T04:57:56.147Z,23.43
2017-09-29T04:59:04.847Z,23.43
2017-09-29T05:00:13.545Z,23.41
2017-09-29T05:01:22.563Z,23.37
2017-09-29T05:02:31.264Z,23.46
2017-09-29T05:03:40.600Z,23.41
2017-09-29T05:04:49.931Z,23.47
2017-09-29T05:05:58.626Z,23.4
2017-09-29T05:07:07.322Z,23.43
2017-09-29T05:08:16.339Z,23.51
2017-09-29T05:09:25.997Z,23.46
2017-09-29T05:10:34.690Z,23.46
2017-09-29T05:11:43.708Z,23.41
2017-09-29T05:12:52.404Z,23.4
2017-09-29T05:14:01.101Z,23.41
2017-09-29T05:15:09.792Z,23.46
2017-09-29T05:16:18.490Z,23.46
2017-09-29T05:17:27.515Z,23.5
2017-09-29T05:18:36.848Z,23.39
2017-09-29T05:19:45.539Z,23.43
2017-09-29T05:20:54.230Z,23.5
2017-09-29T05:22:02.933Z,23.4
2017-09-29T05:23:11.957Z,23.46
2017-09-29T05:24:20.979Z,23.41
2017-09-29T05:25:30.310Z,23.44
2017-09-29T05:26:39.650Z,23.4
2017-09-29T05:27:48.991Z,23.46
2017-09-29T05:28:58.003Z,23.5
2017-09-29T05:30:07.660Z,23.47
2017-09-29T05:31:16.355Z,23.58
2017-09-29T05:32:26.007Z,23.51
2017-09-29T05:33:35.024Z,23.5
2017-09-29T05:34:44.037Z,23.48
2017-09-29T05:35:53.373Z,23.48
2017-09-29T05:37:02.391Z,23.48
2017-09-29T05:38:11.408Z,23.51
2017-09-29T05:39:20.740Z,23.54
2017-09-29T05:40:30.083Z,23.46
2017-09-29T05:41:40.064Z,23.5
2017-09-29T05:42:49.081Z,23.58
2017-09-29T05:43:58.095Z,23.43
2017-09-29T05:45:07.441Z,23.62
2017-09-29T05:46:16.147Z,23.54
2017-09-29T05:47:25.808Z,23.46
2017-09-29T05:48:34.820Z,23.51
2017-09-29T05:49:43.837Z,23.48
2017-09-29T05:50:53.172Z,23.58
2017-09-29T05:52:02.184Z,23.59
2017-09-29T05:53:11.527Z,23.58
2017-09-29T05:54:20.861Z,23.47
2017-09-29T05:55:30.204Z,23.62
2017-09-29T05:56:39.221Z,23.58
2017-09-29T05:57:47.917Z,23.56
2017-09-29T05:58:57.579Z,23.51
2017-09-29T06:00:06.918Z,23.58
2017-09-29T06:01:16.260Z,23.54
2017-09-29T06:02:25.909Z,23.65
2017-09-29T06:03:35.561Z,23.55
2017-09-29T06:04:44.900Z,23.63
2017-09-29T06:05:53.596Z,23.65
2017-09-29T06:07:02.933Z,23.56
2017-09-29T06:08:11.630Z,23.61
2017-09-29T06:09:20.325Z,23.61
2017-09-29T06:10:29.340Z,23.55
2017-09-29T06:11:39.008Z,23.61
2017-09-29T06:12:48.349Z,23.58
2017-09-29T06:13:57.359Z,23.55
2017-09-29T06:15:06.388Z,23.55
2017-09-29T06:16:15.721Z,23.55
2017-09-29T06:17:24.414Z,23.56
2017-09-29T06:18:33.752Z,23.59
2017-09-29T06:19:43.085Z,23.58
2017-09-29T06:20:51.786Z,23.55
2017-09-29T06:22:00.484Z,23.54
2017-09-29T06:23:09.502Z,23.56
2017-09-29T06:24:18.199Z,23.56
2017-09-29T06:25:27.214Z,23.62
2017-09-29T06:26:36.230Z,23.61
2017-09-29T06:27:45.568Z,23.59
2017-09-29T06:28:54.579Z,23.56
2017-09-29T06:30:03.605Z,23.55
2017-09-29T06:31:12.947Z,23.61
2017-09-29T06:32:22.601Z,23.58
2017-09-29T06:33:31.647Z,23.63
2017-09-29T06:34:40.980Z,23.56
2017-09-29T06:35:50.641Z,23.61
2017-09-29T06:36:59.657Z,23.61
2017-09-29T06:38:08.357Z,23.66
2017-09-29T06:39:18.013Z,23.56
2017-09-29T06:40:27.029Z,23.63
2017-09-29T06:41:36.045Z,23.66
2017-09-29T06:42:45.698Z,23.58
2017-09-29T06:43:54.715Z,23.63
2017-09-29T06:45:04.048Z,23.65
2017-09-29T06:46:13.061Z,23.69
2017-09-29T06:47:22.074Z,23.61
2017-09-29T06:48:31.413Z,23.58
2017-09-29T06:49:40.434Z,23.61
2017-09-29T06:50:49.126Z,23.63
2017-09-29T06:51:58.460Z,23.63
2017-09-29T06:53:07.157Z,23.68
2017-09-29T06:54:16.818Z,23.65
2017-09-29T06:55:25.519Z,23.63
2017-09-29T06:56:35.187Z,23.65
2017-09-29T06:57:44.201Z,23.62
2017-09-29T06:58:53.218Z,23.71
2017-09-29T07:00:02.870Z,23.63
2017-09-29T07:01:11.885Z,23.66
2017-09-29T07:02:21.216Z,23.63
2017-09-29T07:03:30.871Z,23.59
2017-09-29T07:04:39.566Z,23.66
2017-09-29T07:05:48.577Z,23.69
2017-09-29T07:06:57.591Z,23.65
2017-09-29T07:08:07.256Z,23.59
2017-09-29T07:09:15.948Z,23.56
2017-09-29T07:10:24.642Z,23.66
2017-09-29T07:11:33.982Z,23.71
2017-09-29T07:12:43.311Z,23.69
2017-09-29T07:13:52.328Z,23.66
2017-09-29T07:15:01.356Z,23.65
2017-09-29T07:16:10.374Z,23.65
2017-09-29T07:17:20.032Z,23.66
2017-09-29T07:18:29.372Z,23.66
2017-09-29T07:19:39.021Z,23.69
2017-09-29T07:20:47.723Z,23.66
2017-09-29T07:21:56.738Z,23.76
2017-09-29T07:23:05.440Z,23.69
2017-09-29T07:24:15.096Z,23.71
2017-09-29T07:25:24.436Z,23.69
2017-09-29T07:26:33.460Z,23.74
2017-09-29T07:27:42.165Z,23.77
2017-09-29T07:28:52.138Z,23.66
2017-09-29T07:30:01.473Z,23.74
2017-09-29T07:31:10.819Z,23.76
2017-09-29T07:32:20.160Z,23.8
2017-09-29T07:33:29.821Z,23.69
2017-09-29T07:34:38.520Z,23.76
2017-09-29T07:35:47.219Z,23.74
2017-09-29T07:36:56.241Z,23.69
2017-09-29T07:38:04.935Z,23.69
2017-09-29T07:39:13.951Z,23.74
2017-09-29T07:40:23.285Z,23.76
2017-09-29T07:41:32.623Z,23.74
2017-09-29T07:42:41.318Z,23.71
2017-09-29T07:43:50.333Z,23.74
2017-09-29T07:44:59.347Z,23.8
2017-09-29T07:46:08.683Z,23.77
2017-09-29T07:47:17.376Z,23.73
2017-09-29T07:48:26.715Z,23.8
2017-09-29T07:49:36.052Z,23.83
2017-09-29T07:50:45.389Z,23.78
2017-09-29T07:51:54.411Z,23.91
2017-09-29T07:53:03.427Z,23.86
2017-09-29T07:54:12.443Z,23.87
2017-09-29T07:55:21.461Z,23.92
2017-09-29T07:56:30.199Z,23.99
2017-09-29T07:57:39.849Z,23.98
2017-09-29T07:58:48.546Z,23.92
2017-09-29T07:59:57.559Z,23.92
2017-09-29T08:01:06.255Z,23.98
2017-09-29T08:02:15.279Z,24.02
2017-09-29T08:03:24.618Z,23.93
2017-09-29T08:04:33.632Z,23.88
2017-09-29T08:05:42.970Z,23.95
2017-09-29T08:06:52.628Z,24.01
2017-09-29T08:08:01.649Z,23.93
2017-09-29T08:09:10.663Z,23.91
2017-09-29T08:10:19.679Z,23.91
2017-09-29T08:11:29.018Z,23.93
2017-09-29T08:12:38.034Z,23.93
2017-09-29T08:13:47.047Z,23.98
2017-09-29T08:14:56.055Z,24.02
2017-09-29T08:16:05.073Z,23.95
2017-09-29T08:17:14.407Z,23.99
2017-09-29T08:18:23.748Z,24.02
2017-09-29T08:19:32.445Z,23.92
2017-09-29T08:20:41.467Z,23.98
2017-09-29T08:21:50.806Z,24.01
2017-09-29T08:22:59.826Z,24.14
2017-09-29T08:24:09.167Z,24.1
2017-09-29T08:25:17.872Z,24.06
2017-09-29T08:26:26.891Z,24.13
2017-09-29T08:27:36.228Z,24.01
2017-09-29T08:28:45.561Z,24.11
2017-09-29T08:29:54.585Z,24.08
2017-09-29T08:31:03.601Z,24.1
2017-09-29T08:32:13.258Z,24.11
2017-09-29T08:33:22.278Z,24.08
2017-09-29T08:34:31.294Z,24.08
2017-09-29T08:35:40.635Z,24.16
2017-09-29T08:36:50.286Z,24.18
2017-09-29T08:37:59.302Z,24.2
2017-09-29T08:39:08.640Z,24.18
2017-09-29T08:40:17.978Z,24.16
2017-09-29T08:41:26.672Z,24.14
2017-09-29T08:42:35.685Z,24.2
2017-09-29T08:43:44.707Z,24.17
2017-09-29T08:44:54.366Z,24.24
2017-09-29T08:46:04.038Z,24.29
2017-09-29T08:47:13.371Z,24.32
2017-09-29T08:48:22.068Z,24.39
2017-09-29T08:49:31.079Z,24.47
2017-09-29T08:50:39.772Z,24.51
2017-09-29T08:51:48.469Z,24.61
2017-09-29T08:52:57.162Z,24.6
2017-09-29T08:54:06.499Z,24.63
2017-09-29T08:55:15.511Z,24.66
2017-09-29T08:56:24.202Z,24.77
2017-09-29T08:57:33.540Z,24.84
2017-09-29T08:58:43.192Z,24.91
2017-09-29T08:59:52.206Z,24.93
2017-09-29T09:01:00.900Z,24.96
2017-09-29T09:02:10.240Z,25.04
2017-09-29T09:03:19.903Z,25.01
2017-09-29T09:04:28.922Z,25.17
2017-09-29T09:05:37.620Z,25.31
2017-09-29T09:06:46.317Z,25.21
2017-09-29T09:07:55.656Z,25.28
2017-09-29T09:09:04.668Z,25.33
2017-09-29T09:10:14.027Z,25.33
2017-09-29T09:11:22.725Z,25.43
2017-09-29T09:12:31.793Z,25.41
2017-09-29T09:13:41.507Z,25.38
2017-09-29T09:14:50.568Z,25.46
2017-09-29T09:16:00.230Z,25.41
2017-09-29T09:17:09.248Z,25.51
2017-09-29T09:18:18.695Z,25.54
2017-09-29T09:19:28.028Z,25.58
2017-09-29T09:20:37.364Z,25.58
2017-09-29T09:21:46.803Z,25.63
2017-09-29T09:22:55.816Z,25.73
2017-09-29T09:24:05.493Z,25.78
2017-09-29T09:25:14.831Z,25.8
2017-09-29T09:26:24.489Z,25.83
2017-09-29T09:27:33.828Z,25.87
2017-09-29T09:28:43.252Z,26.05
2017-09-29T09:29:52.267Z,26.33
2017-09-29T09:31:00.966Z,26.74
2017-09-29T09:32:10.302Z,27.03
2017-09-29T09:33:19.323Z,27.33
2017-09-29T09:34:28.343Z,27.64
2017-09-29T09:35:37.359Z,27.87
2017-09-29T09:36:47.374Z,28.17
2017-09-29T09:37:56.705Z,28.45
2017-09-29T09:39:05.736Z,28.89
2017-09-29T09:40:15.087Z,29.23
2017-09-29T09:41:24.104Z,29.47
2017-09-29T09:42:33.441Z,29.84
2017-09-29T09:43:42.777Z,30.16
2017-09-29T09:44:52.434Z,30.23
2017-09-29T09:46:02.097Z,30.32
2017-09-29T09:47:11.752Z,30.57
2017-09-29T09:48:20.452Z,30.65
2017-09-29T09:49:30.426Z,30.8
2017-09-29T09:50:39.130Z,30.96
2017-09-29T09:51:48.469Z,31.05
2017-09-29T09:52:57.170Z,31.07
2017-09-29T09:54:06.199Z,30.96
2017-09-29T09:55:14.898Z,30.96
2017-09-29T09:56:23.917Z,31.2
2017-09-29T09:57:33.260Z,31.42
2017-09-29T09:58:42.276Z,31.61
2017-09-29T09:59:50.977Z,31.64
2017-09-29T10:01:00.320Z,31.76
2017-09-29T10:02:09.659Z,32.04
2017-09-29T10:03:19.003Z,32.26
2017-09-29T10:04:28.346Z,32.45
2017-09-29T10:05:37.368Z,32.78
2017-09-29T10:06:46.391Z,33.07
2017-09-29T10:07:55.411Z,33.24
2017-09-29T10:09:04.435Z,33.31
2017-09-29T10:10:13.466Z,33.3
2017-09-29T10:11:22.810Z,33.28
2017-09-29T10:12:32.149Z,33.24
2017-09-29T10:13:40.847Z,33.14
2017-09-29T10:14:49.543Z,33
2017-09-29T10:15:58.903Z,32.89
2017-09-29T10:17:07.924Z,32.9
2017-09-29T10:18:17.271Z,33.07
2017-09-29T10:19:26.287Z,33.42
2017-09-29T10:20:35.640Z,33.71
2017-09-29T10:21:44.974Z,34.02
2017-09-29T10:22:54.310Z,34.33
2017-09-29T10:24:03.652Z,34.61
2017-09-29T10:25:12.673Z,34.74
2017-09-29T10:26:22.328Z,34.96
2017-09-29T10:27:31.668Z,34.95
2017-09-29T10:28:41.006Z,34.99
2017-09-29T10:29:50.029Z,35.05
2017-09-29T10:30:59.052Z,35.12
2017-09-29T10:32:08.110Z,34.93
2017-09-29T10:33:17.129Z,34.81
2017-09-29T10:34:26.151Z,34.66
2017-09-29T10:35:34.856Z,34.55
2017-09-29T10:36:43.882Z,34.32
2017-09-29T10:37:53.228Z,34.08
2017-09-29T10:39:02.580Z,33.8
2017-09-29T10:40:11.607Z,33.73
2017-09-29T10:41:20.955Z,33.4
2017-09-29T10:42:30.293Z,33.19
2017-09-29T10:43:39.318Z,32.92
2017-09-29T10:44:48.660Z,32.82
2017-09-29T10:45:57.360Z,32.68
2017-09-29T10:47:06.386Z,32.55
2017-09-29T10:48:15.408Z,32.67
2017-09-29T10:49:24.751Z,32.67
2017-09-29T10:50:34.094Z,32.8
2017-09-29T10:51:43.117Z,32.85
2017-09-29T10:52:52.140Z,32.85
2017-09-29T10:54:01.161Z,32.67
2017-09-29T10:55:10.179Z,32.67
2017-09-29T10:56:19.841Z,32.85
2017-09-29T10:57:28.859Z,33.23
2017-09-29T10:58:38.197Z,33.61
2017-09-29T10:59:47.220Z,33.99
2017-09-29T11:00:56.883Z,34.35
2017-09-29T11:02:06.224Z,34.47
2017-09-29T11:03:15.561Z,34.08
2017-09-29T11:04:24.266Z,33.77
2017-09-29T11:05:33.938Z,33.42
2017-09-29T11:06:43.287Z,33.27
2017-09-29T11:07:52.309Z,33.45
2017-09-29T11:09:01.015Z,33.74
2017-09-29T11:10:09.720Z,34.08
2017-09-29T11:11:19.055Z,34.52
2017-09-29T11:12:28.079Z,34.89
2017-09-29T11:13:37.436Z,35.15
2017-09-29T11:14:46.135Z,35.53
2017-09-29T11:15:55.158Z,35.7
2017-09-29T11:17:04.178Z,35.93
2017-09-29T11:18:13.200Z,35.74
2017-09-29T11:19:22.216Z,35.31
2017-09-29T11:20:30.920Z,34.93
2017-09-29T11:21:39.945Z,34.54
2017-09-29T11:22:48.643Z,34.36
2017-09-29T11:23:57.983Z,34.2
2017-09-29T11:25:07.006Z,34.24
2017-09-29T11:26:15.705Z,34.45
2017-09-29T11:27:24.730Z,34.75
2017-09-29T11:28:34.077Z,35.18
2017-09-29T11:29:43.747Z,35.19
2017-09-29T11:30:53.094Z,35.18
2017-09-29T11:32:02.436Z,34.97
2017-09-29T11:33:11.787Z,34.7
2017-09-29T11:34:21.458Z,34.5
2017-09-29T11:35:30.868Z,34.4
2017-09-29T11:36:40.547Z,34.6
2017-09-29T11:37:49.254Z,34.67
2017-09-29T11:38:57.958Z,34.67
2017-09-29T11:40:07.302Z,34.8
2017-09-29T11:41:16.005Z,34.92
2017-09-29T11:42:25.029Z,34.92
2017-09-29T11:43:34.050Z,34.97
2017-09-29T11:44:43.077Z,34.86
2017-09-29T11:45:52.416Z,34.75
2017-09-29T11:47:01.438Z,34.58
2017-09-29T11:48:10.781Z,34.3
2017-09-29T11:49:19.803Z,34.13
2017-09-29T11:50:29.142Z,33.81
2017-09-29T11:51:38.484Z,33.45
2017-09-29T11:52:47.824Z,33.2
2017-09-29T11:53:56.843Z,32.82
2017-09-29T11:55:06.185Z,32.56
2017-09-29T11:56:15.210Z,32.31
2017-09-29T11:57:24.872Z,32.11
2017-09-29T11:58:34.215Z,31.96
2017-09-29T11:59:43.240Z,31.74
2017-09-29T12:00:52.264Z,31.61
2017-09-29T12:02:01.288Z,31.31
2017-09-29T12:03:10.309Z,31.2
2017-09-29T12:04:20.327Z,31.03
2017-09-29T12:05:29.024Z,30.91
2017-09-29T12:06:38.702Z,30.73
2017-09-29T12:07:48.047Z,30.61
2017-09-29T12:08:57.710Z,30.55
2017-09-29T12:10:06.408Z,30.34
2017-09-29T12:11:15.514Z,30.27
2017-09-29T12:12:24.857Z,30.16
2017-09-29T12:13:33.557Z,30.08
2017-09-29T12:14:42.914Z,29.91
2017-09-29T12:15:51.931Z,29.88
2017-09-29T12:17:00.628Z,29.73
2017-09-29T12:18:09.645Z,29.71
2017-09-29T12:19:18.664Z,29.53
2017-09-29T12:20:28.642Z,29.54
2017-09-29T12:21:37.661Z,29.42
2017-09-29T12:22:46.361Z,29.34
2017-09-29T12:23:55.704Z,29.35
2017-09-29T12:25:05.040Z,29.22
2017-09-29T12:26:14.057Z,29.23
2017-09-29T12:27:23.073Z,29.13
2017-09-29T12:28:32.090Z,29.04
2017-09-29T12:29:40.789Z,28.97
2017-09-29T12:30:50.125Z,28.88
2017-09-29T12:31:58.826Z,28.88
2017-09-29T12:33:08.231Z,28.84
2017-09-29T12:34:16.933Z,28.79
2017-09-29T12:35:26.920Z,28.74
2017-09-29T12:36:36.258Z,28.75
2017-09-29T12:37:45.276Z,28.67
2017-09-29T12:38:54.301Z,28.67
2017-09-29T12:40:03.327Z,28.59
2017-09-29T12:41:12.025Z,28.48
2017-09-29T12:42:21.052Z,28.42
2017-09-29T12:43:30.390Z,28.37
2017-09-29T12:44:39.411Z,28.35
2017-09-29T12:45:48.788Z,28.32
2017-09-29T12:46:58.124Z,28.23
2017-09-29T12:48:07.460Z,28.25
2017-09-29T12:49:16.155Z,28.22
2017-09-29T12:50:25.175Z,28.08
2017-09-29T12:51:34.289Z,28.14
2017-09-29T12:52:43.624Z,28
2017-09-29T12:53:52.646Z,27.96
2017-09-29T12:55:01.342Z,28.02
2017-09-29T12:56:10.682Z,27.98
2017-09-29T12:57:19.383Z,27.92
2017-09-29T12:58:28.083Z,27.95
2017-09-29T12:59:36.780Z,27.9
2017-09-29T13:00:45.476Z,27.8
2017-09-29T13:01:54.490Z,27.8
2017-09-29T13:03:03.187Z,27.85
2017-09-29T13:04:11.881Z,27.73
2017-09-29T13:05:20.909Z,27.78
2017-09-29T13:06:29.937Z,27.74
2017-09-29T13:07:38.954Z,27.71
2017-09-29T13:08:47.971Z,27.64
2017-09-29T13:09:57.305Z,27.54
2017-09-29T13:11:06.326Z,27.59
2017-09-29T13:12:15.019Z,27.59
2017-09-29T13:13:24.359Z,27.59
2017-09-29T13:14:33.378Z,27.6
2017-09-29T13:15:42.393Z,27.49
2017-09-29T13:16:51.090Z,27.49
2017-09-29T13:18:00.427Z,27.51
2017-09-29T13:19:09.448Z,27.47
2017-09-29T13:20:18.787Z,27.47
2017-09-29T13:21:27.487Z,27.42
2017-09-29T13:22:36.510Z,27.44
2017-09-29T13:23:45.526Z,27.37
2017-09-29T13:24:54.229Z,27.35
2017-09-29T13:26:03.244Z,27.36
2017-09-29T13:27:12.581Z,27.27
2017-09-29T13:28:21.601Z,27.37
2017-09-29T13:29:30.623Z,27.26
2017-09-29T13:30:39.643Z,27.26
2017-09-29T13:31:48.662Z,27.2
2017-09-29T13:32:57.360Z,27.15
2017-09-29T13:34:07.033Z,27.2
2017-09-29T13:35:15.734Z,27.14
2017-09-29T13:36:25.387Z,27.15
2017-09-29T13:37:34.090Z,27.12
2017-09-29T13:38:43.106Z,27.11
2017-09-29T13:39:52.122Z,27.17
2017-09-29T13:41:01.457Z,27.03
2017-09-29T13:42:10.791Z,27.11
2017-09-29T13:43:20.130Z,26.97
2017-09-29T13:44:29.146Z,27.05
2017-09-29T13:45:38.164Z,26.95
2017-09-29T13:46:47.830Z,26.97
2017-09-29T13:47:56.843Z,26.9
2017-09-29T13:49:05.543Z,26.88
2017-09-29T13:50:14.555Z,26.97
2017-09-29T13:51:23.251Z,26.85
2017-09-29T13:52:32.578Z,26.88
2017-09-29T13:53:41.590Z,26.84
2017-09-29T13:54:50.608Z,26.85
2017-09-29T13:55:59.956Z,26.9
2017-09-29T13:57:08.970Z,26.88
2017-09-29T13:58:18.302Z,26.81
2017-09-29T13:59:27.328Z,26.88
2017-09-29T14:00:36.032Z,26.77
2017-09-29T14:01:46.008Z,26.78
2017-09-29T14:02:54.703Z,26.83
2017-09-29T14:04:03.723Z,26.83
2017-09-29T14:05:13.379Z,26.75
2017-09-29T14:06:22.721Z,26.75
2017-09-29T14:07:31.742Z,26.66
2017-09-29T14:08:40.762Z,26.65
2017-09-29T14:09:49.777Z,26.68
2017-09-29T14:10:58.799Z,26.66
2017-09-29T14:12:08.456Z,26.65
2017-09-29T14:13:17.795Z,26.62
2017-09-29T14:14:26.814Z,26.58
2017-09-29T14:15:36.150Z,26.47
2017-09-29T14:16:45.485Z,26.53
2017-09-29T14:17:54.179Z,26.53
2017-09-29T14:19:03.195Z,26.56
2017-09-29T14:20:12.535Z,26.55
2017-09-29T14:21:21.546Z,26.63
2017-09-29T14:22:30.559Z,26.53
2017-09-29T14:23:39.580Z,26.63
2017-09-29T14:24:48.278Z,26.45
2017-09-29T14:25:56.977Z,26.48
2017-09-29T14:27:05.671Z,26.45
2017-09-29T14:28:14.690Z,26.43
2017-09-29T14:29:23.706Z,26.45
2017-09-29T14:30:33.368Z,26.45
2017-09-29T14:31:42.702Z,26.34
2017-09-29T14:32:51.714Z,26.41
2017-09-29T14:34:00.753Z,26.37
2017-09-29T14:35:09.452Z,26.4
2017-09-29T14:36:18.150Z,26.34
2017-09-29T14:37:26.852Z,26.29
2017-09-29T14:38:35.545Z,26.31
2017-09-29T14:39:44.887Z,26.37
2017-09-29T14:40:53.901Z,26.36
2017-09-29T14:42:03.232Z,26.38
2017-09-29T14:43:12.250Z,26.22
2017-09-29T14:44:21.597Z,26.31
2017-09-29T14:45:30.932Z,26.31
2017-09-29T14:46:40.274Z,26.29
2017-09-29T14:47:49.608Z,26.22
2017-09-29T14:48:58.959Z,26.18
2017-09-29T14:50:07.977Z,26.18
2017-09-29T14:51:16.987Z,26.21
2017-09-29T14:52:26.013Z,26.22
2017-09-29T14:53:35.350Z,26.16